createdAt,value
2018-12-26T00:00:43.661Z,21.21
2018-12-26T00:01:43.815Z,21.32
2018-12-26T00:02:43.746Z,21.27
2018-12-26T00:03:43.832Z,21.21
2018-12-26T00:04:43.831Z,21.29
2018-12-26T00:05:43.927Z,21.13
2018-12-26T00:06:43.919Z,21.24
2018-12-26T00:07:43.962Z,21.20
2018-12-26T00:08:44.031Z,21.20
2018-12-26T00:09:44.071Z,21.17
2018-12-26T00:10:44.109Z,21.24
2018-12-26T00:11:44.124Z,21.13
2018-12-26T00:12:44.187Z,21.11
2018-12-26T00:13:44.225Z,21.14
2018-12-26T00:14:44.297Z,21.24
2018-12-26T00:15:44.350Z,21.21
2018-12-26T00:16:44.365Z,21.27
2018-12-26T00:17:44.422Z,21.21
2018-12-26T00:18:44.519Z,21.20
2018-12-26T00:19:44.639Z,21.20
2018-12-26T00:20:44.573Z,21.21
2018-12-26T00:21:44.601Z,21.20
2018-12-26T00:22:44.656Z,21.17
2018-12-26T00:23:44.687Z,21.14
2018-12-26T00:24:44.745Z,21.19
2018-12-26T00:25:44.796Z,21.19
2018-12-26T00:26:44.832Z,21.13
2018-12-26T00:27:44.857Z,21.17
2018-12-26T00:28:44.914Z,21.16
2018-12-26T00:29:44.981Z,21.05
2018-12-26T00:30:45.045Z,20.99
2018-12-26T00:31:45.064Z,21.05
2018-12-26T00:32:45.118Z,20.98
2018-12-26T00:33:45.159Z,21.08
2018-12-26T00:34:45.188Z,20.93
2018-12-26T00:35:45.222Z,20.93
2018-12-26T00:36:45.293Z,20.93
2018-12-26T00:37:45.323Z,20.90
2018-12-26T00:38:45.394Z,20.81
2018-12-26T00:39:45.432Z,20.83
2018-12-26T00:40:45.478Z,20.83
2018-12-26T00:41:45.519Z,20.83
2018-12-26T00:42:45.667Z,20.84
2018-12-26T00:43:45.593Z,20.71
2018-12-26T00:44:45.667Z,20.77
2018-12-26T00:45:45.717Z,20.77
2018-12-26T00:46:45.751Z,20.66
2018-12-26T00:47:45.777Z,20.74
2018-12-26T00:48:45.876Z,20.68
2018-12-26T00:49:45.934Z,20.69
2018-12-26T00:50:45.941Z,20.65
2018-12-26T00:51:45.980Z,20.71
2018-12-26T00:52:46.003Z,20.69
2018-12-26T00:53:46.058Z,20.65
2018-12-26T00:54:46.096Z,20.68
2018-12-26T00:55:46.151Z,20.64
2018-12-26T00:56:46.198Z,20.69
2018-12-26T00:57:46.241Z,20.71
2018-12-26T00:58:46.295Z,20.72
2018-12-26T00:59:46.341Z,20.69
2018-12-26T01:00:46.437Z,20.81
2018-12-26T01:01:46.468Z,20.84
2018-12-26T01:02:46.469Z,20.84
2018-12-26T01:03:46.530Z,20.84
2018-12-26T01:04:46.575Z,20.83
2018-12-26T01:05:46.693Z,20.80
2018-12-26T01:06:46.657Z,20.87
2018-12-26T01:07:46.746Z,20.98
2018-12-26T01:08:46.759Z,20.95
2018-12-26T01:09:46.780Z,20.93
2018-12-26T01:10:46.848Z,20.89
2018-12-26T01:11:46.873Z,20.93
2018-12-26T01:12:46.910Z,20.99
2018-12-26T01:13:46.979Z,20.95
2018-12-26T01:14:47.035Z,20.91
2018-12-26T01:15:47.066Z,20.96
2018-12-26T01:16:47.114Z,20.98
2018-12-26T01:17:47.148Z,20.90
2018-12-26T01:18:47.197Z,20.89
2018-12-26T01:19:47.246Z,20.90
2018-12-26T01:20:47.291Z,20.87
2018-12-26T01:21:47.340Z,20.93
2018-12-26T01:22:47.426Z,20.89
2018-12-26T01:23:47.432Z,20.96
2018-12-26T01:24:47.477Z,20.91
2018-12-26T01:25:47.532Z,20.99
2018-12-26T01:26:47.570Z,20.95
2018-12-26T01:27:47.607Z,20.93
2018-12-26T01:28:47.656Z,20.91
2018-12-26T01:29:47.701Z,20.89
2018-12-26T01:30:47.730Z,20.96
2018-12-26T01:31:47.781Z,20.96
2018-12-26T01:32:47.849Z,20.90
2018-12-26T01:33:47.866Z,20.89
2018-12-26T01:34:47.962Z,20.98
2018-12-26T01:35:47.952Z,20.91
2018-12-26T01:36:48.006Z,20.93
2018-12-26T01:37:48.069Z,20.99
2018-12-26T01:38:48.104Z,20.95
2018-12-26T01:39:48.151Z,20.99
2018-12-26T01:40:48.191Z,20.98
2018-12-26T01:41:48.226Z,20.93
2018-12-26T01:42:48.351Z,20.96
2018-12-26T01:43:48.335Z,21.09
2018-12-26T01:44:48.364Z,20.99
2018-12-26T01:45:48.446Z,21.08
2018-12-26T01:46:48.511Z,20.99
2018-12-26T01:47:48.518Z,21.01
2018-12-26T01:48:48.570Z,21.05
2018-12-26T01:49:48.602Z,21.06
2018-12-26T01:50:48.701Z,21.06
2018-12-26T01:51:48.688Z,20.95
2018-12-26T01:52:48.751Z,21.05
2018-12-26T01:53:48.779Z,21.09
2018-12-26T01:54:48.849Z,20.91
2018-12-26T01:55:48.858Z,20.96
2018-12-26T01:56:48.943Z,20.89
2018-12-26T01:57:48.969Z,20.91
2018-12-26T01:58:49.061Z,20.91
2018-12-26T01:59:49.087Z,20.90
2018-12-26T02:00:49.106Z,20.90
2018-12-26T02:01:49.152Z,20.90
2018-12-26T02:02:49.207Z,20.90
2018-12-26T02:03:49.254Z,20.95
2018-12-26T02:04:49.323Z,20.89
2018-12-26T02:05:49.346Z,20.79
2018-12-26T02:06:49.397Z,20.90
2018-12-26T02:07:49.430Z,20.89
2018-12-26T02:08:49.469Z,20.81
2018-12-26T02:09:49.511Z,20.80
2018-12-26T02:10:49.577Z,20.83
2018-12-26T02:11:49.630Z,20.84
2018-12-26T02:12:49.640Z,20.81
2018-12-26T02:13:49.688Z,20.83
2018-12-26T02:14:49.788Z,20.86
2018-12-26T02:15:49.769Z,20.80
2018-12-26T02:16:49.878Z,20.68
2018-12-26T02:17:49.884Z,20.68
2018-12-26T02:18:49.975Z,20.54
2018-12-26T02:19:49.972Z,20.39
2018-12-26T02:20:50.016Z,20.28
2018-12-26T02:21:50.060Z,20.21
2018-12-26T02:22:50.104Z,20.13
2018-12-26T02:23:50.161Z,20.08
2018-12-26T02:24:50.229Z,19.94
2018-12-26T02:25:50.249Z,19.88
2018-12-26T02:26:50.281Z,19.86
2018-12-26T02:27:50.341Z,19.86
2018-12-26T02:28:50.380Z,19.87
2018-12-26T02:29:50.427Z,19.88
2018-12-26T02:30:50.468Z,19.84
2018-12-26T02:31:50.524Z,19.84
2018-12-26T02:32:50.546Z,19.84
2018-12-26T02:33:50.624Z,19.83
2018-12-26T02:34:50.643Z,19.84
2018-12-26T02:35:50.678Z,19.83
2018-12-26T02:36:50.757Z,19.73
2018-12-26T02:37:50.804Z,19.65
2018-12-26T02:38:50.852Z,19.66
2018-12-26T02:39:50.881Z,19.66
2018-12-26T02:40:50.902Z,19.61
2018-12-26T02:41:50.954Z,19.54
2018-12-26T02:42:51.046Z,19.57
2018-12-26T02:43:51.046Z,19.47
2018-12-26T02:44:51.105Z,19.47
2018-12-26T02:45:51.159Z,19.48
2018-12-26T02:46:51.179Z,19.46
2018-12-26T02:47:51.219Z,19.47
2018-12-26T02:48:51.286Z,19.40
2018-12-26T02:49:51.310Z,19.46
2018-12-26T02:50:51.419Z,19.47
2018-12-26T02:51:51.394Z,19.43
2018-12-26T02:52:51.463Z,19.40
2018-12-26T02:53:51.494Z,19.36
2018-12-26T02:54:51.535Z,19.42
2018-12-26T02:55:51.577Z,19.35
2018-12-26T02:56:51.673Z,19.46
2018-12-26T02:57:51.687Z,19.46
2018-12-26T02:58:51.737Z,19.36
2018-12-26T02:59:51.763Z,19.38
2018-12-26T03:00:51.828Z,19.35
2018-12-26T03:01:51.855Z,19.47
2018-12-26T03:02:51.904Z,19.38
2018-12-26T03:03:51.962Z,19.42
2018-12-26T03:04:52.048Z,19.46
2018-12-26T03:05:52.078Z,19.48
2018-12-26T03:06:52.088Z,19.50
2018-12-26T03:07:52.141Z,19.40
2018-12-26T03:08:52.309Z,19.50
2018-12-26T03:09:52.226Z,19.47
2018-12-26T03:10:52.263Z,19.46
2018-12-26T03:11:52.306Z,19.54
2018-12-26T03:12:52.359Z,19.46
2018-12-26T03:13:52.381Z,19.47
2018-12-26T03:14:52.452Z,19.47
2018-12-26T03:15:52.483Z,19.39
2018-12-26T03:16:52.528Z,19.48
2018-12-26T03:17:52.577Z,19.47
2018-12-26T03:18:52.602Z,19.43
2018-12-26T03:19:52.664Z,19.42
2018-12-26T03:20:52.743Z,19.46
2018-12-26T03:21:52.776Z,19.47
2018-12-26T03:22:52.818Z,19.42
2018-12-26T03:23:52.853Z,19.46
2018-12-26T03:24:52.912Z,19.46
2018-12-26T03:25:52.919Z,19.47
2018-12-26T03:26:56.456Z,19.46
2018-12-26T03:27:53.024Z,19.46
2018-12-26T03:28:53.073Z,19.42
2018-12-26T03:29:53.111Z,19.53
2018-12-26T03:30:53.175Z,19.46
2018-12-26T03:31:53.219Z,19.46
2018-12-26T03:32:53.251Z,19.50
2018-12-26T03:33:53.345Z,19.47
2018-12-26T03:34:53.323Z,19.47
2018-12-26T03:35:53.383Z,19.51
2018-12-26T03:36:53.467Z,19.48
2018-12-26T03:37:53.473Z,19.42
2018-12-26T03:38:53.514Z,19.51
2018-12-26T03:39:53.566Z,19.43
2018-12-26T03:40:53.590Z,19.40
2018-12-26T03:41:53.668Z,19.54
2018-12-26T03:42:53.701Z,19.58
2018-12-26T03:43:53.746Z,19.60
2018-12-26T03:44:53.792Z,19.58
2018-12-26T03:45:53.849Z,19.60
2018-12-26T03:46:53.887Z,19.57
2018-12-26T03:47:53.968Z,19.46
2018-12-26T03:48:53.993Z,19.51
2018-12-26T03:49:54.030Z,19.55
2018-12-26T03:50:54.054Z,19.58
2018-12-26T03:51:54.129Z,19.63
2018-12-26T03:52:54.160Z,19.61
2018-12-26T03:53:54.241Z,19.57
2018-12-26T03:54:54.245Z,19.61
2018-12-26T03:55:54.293Z,19.66
2018-12-26T03:56:54.340Z,19.48
2018-12-26T03:57:54.382Z,19.47
2018-12-26T03:58:54.413Z,19.42
2018-12-26T03:59:54.525Z,19.43
2018-12-26T04:00:54.511Z,19.43
2018-12-26T04:01:54.555Z,19.42
2018-12-26T04:02:54.590Z,19.33
2018-12-26T04:03:54.638Z,19.39
2018-12-26T04:04:54.700Z,19.39
2018-12-26T04:05:54.770Z,19.38
2018-12-26T04:06:54.797Z,19.42
2018-12-26T04:07:54.866Z,19.35
2018-12-26T04:08:54.875Z,19.36
2018-12-26T04:09:54.922Z,19.40
2018-12-26T04:10:54.984Z,19.39
2018-12-26T04:11:55.045Z,19.36
2018-12-26T04:12:55.054Z,19.39
2018-12-26T04:13:55.115Z,19.40
2018-12-26T04:14:55.141Z,19.43
2018-12-26T04:15:55.162Z,19.40
2018-12-26T04:16:55.223Z,19.33
2018-12-26T04:17:55.284Z,19.29
2018-12-26T04:18:55.313Z,19.46
2018-12-26T04:19:55.360Z,19.28
2018-12-26T04:20:55.417Z,19.36
2018-12-26T04:21:55.447Z,19.36
2018-12-26T04:22:55.521Z,19.39
2018-12-26T04:23:55.551Z,19.38
2018-12-26T04:24:55.579Z,19.31
2018-12-26T04:25:55.619Z,19.25
2018-12-26T04:26:55.686Z,19.31
2018-12-26T04:27:55.722Z,19.31
2018-12-26T04:28:55.757Z,19.43
2018-12-26T04:29:55.831Z,19.38
2018-12-26T04:30:55.849Z,19.40
2018-12-26T04:31:55.896Z,19.40
2018-12-26T04:32:55.948Z,19.47
2018-12-26T04:33:55.990Z,19.46
2018-12-26T04:34:56.028Z,19.42
2018-12-26T04:35:56.061Z,19.46
2018-12-26T04:36:56.125Z,19.39
2018-12-26T04:37:56.173Z,19.43
2018-12-26T04:38:56.195Z,19.50
2018-12-26T04:39:56.267Z,19.38
2018-12-26T04:40:56.314Z,19.46
2018-12-26T04:41:56.343Z,19.48
2018-12-26T04:42:56.407Z,19.42
2018-12-26T04:43:56.426Z,19.40
2018-12-26T04:44:56.484Z,19.39
2018-12-26T04:45:56.533Z,19.46
2018-12-26T04:46:56.566Z,19.40
2018-12-26T04:47:56.613Z,19.33
2018-12-26T04:48:56.665Z,19.38
2018-12-26T04:49:56.716Z,19.32
2018-12-26T04:50:56.753Z,19.35
2018-12-26T04:51:56.843Z,19.36
2018-12-26T04:52:56.878Z,19.39
2018-12-26T04:53:56.882Z,19.39
2018-12-26T04:54:56.943Z,19.39
2018-12-26T04:55:56.974Z,19.42
2018-12-26T04:56:57.007Z,19.38
2018-12-26T04:57:57.055Z,19.31
2018-12-26T04:58:57.103Z,19.38
2018-12-26T04:59:57.164Z,19.35
2018-12-26T05:00:57.205Z,19.39
2018-12-26T05:01:57.245Z,19.40
2018-12-26T05:02:57.268Z,19.39
2018-12-26T05:03:57.320Z,19.43
2018-12-26T05:04:57.365Z,19.28
2018-12-26T05:05:57.411Z,19.38
2018-12-26T05:06:57.463Z,19.39
2018-12-26T05:07:57.551Z,19.36
2018-12-26T05:08:57.609Z,19.39
2018-12-26T05:09:57.603Z,19.38
2018-12-26T05:10:57.647Z,19.42
2018-12-26T05:11:57.732Z,19.31
2018-12-26T05:12:57.730Z,19.40
2018-12-26T05:13:57.774Z,19.28
2018-12-26T05:14:57.820Z,19.29
2018-12-26T05:15:57.901Z,19.42
2018-12-26T05:16:57.914Z,19.38
2018-12-26T05:17:57.953Z,19.35
2018-12-26T05:18:58.047Z,19.38
2018-12-26T05:19:58.040Z,19.32
2018-12-26T05:20:58.096Z,19.28
2018-12-26T05:21:58.129Z,19.35
2018-12-26T05:22:58.177Z,19.25
2018-12-26T05:23:58.266Z,19.29
2018-12-26T05:24:58.270Z,19.29
2018-12-26T05:25:58.320Z,19.21
2018-12-26T05:26:58.369Z,19.35
2018-12-26T05:27:58.406Z,19.33
2018-12-26T05:28:58.444Z,19.29
2018-12-26T05:29:58.484Z,19.32
2018-12-26T05:30:58.576Z,19.35
2018-12-26T05:31:58.570Z,19.25
2018-12-26T05:32:58.610Z,19.31
2018-12-26T05:33:58.676Z,19.28
2018-12-26T05:34:58.712Z,19.31
2018-12-26T05:35:58.748Z,19.28
2018-12-26T05:36:58.791Z,19.23
2018-12-26T05:37:58.847Z,19.24
2018-12-26T05:38:58.890Z,19.21
2018-12-26T05:39:58.948Z,19.24
2018-12-26T05:40:58.982Z,19.18
2018-12-26T05:41:59.031Z,19.18
2018-12-26T05:42:59.067Z,19.25
2018-12-26T05:43:59.111Z,19.29
2018-12-26T05:44:59.156Z,19.31
2018-12-26T05:45:59.204Z,19.31
2018-12-26T05:46:59.245Z,19.20
2018-12-26T05:47:59.301Z,19.20
2018-12-26T05:48:59.312Z,19.21
2018-12-26T05:49:59.412Z,19.28
2018-12-26T05:50:59.422Z,19.21
2018-12-26T05:51:59.462Z,19.24
2018-12-26T05:52:59.478Z,19.20
2018-12-26T05:53:59.537Z,19.21
2018-12-26T05:54:59.590Z,19.21
2018-12-26T05:55:59.946Z,19.23
2018-12-26T05:56:59.674Z,19.28
2018-12-26T05:57:59.754Z,19.31
2018-12-26T05:58:59.756Z,19.29
2018-12-26T05:59:59.807Z,19.32
2018-12-26T06:00:59.908Z,19.29
2018-12-26T06:01:59.908Z,19.23
2018-12-26T06:02:59.963Z,19.31
2018-12-26T06:03:59.985Z,19.33
2018-12-26T06:05:00.085Z,19.32
2018-12-26T06:06:00.100Z,19.35
2018-12-26T06:07:00.112Z,19.29
2018-12-26T06:08:00.179Z,19.32
2018-12-26T06:09:00.224Z,19.29
2018-12-26T06:10:00.291Z,19.29
2018-12-26T06:11:00.296Z,19.32
2018-12-26T06:12:00.352Z,19.32
2018-12-26T06:13:00.423Z,19.29
2018-12-26T06:14:00.474Z,19.32
2018-12-26T06:15:00.469Z,19.33
2018-12-26T06:16:00.528Z,19.31
2018-12-26T06:17:00.578Z,19.32
2018-12-26T06:18:00.596Z,19.31
2018-12-26T06:19:00.665Z,19.24
2018-12-26T06:20:00.708Z,19.31
2018-12-26T06:21:00.735Z,19.29
2018-12-26T06:22:00.790Z,19.33
2018-12-26T06:23:00.844Z,19.38
2018-12-26T06:24:00.891Z,19.24
2018-12-26T06:25:00.933Z,19.35
2018-12-26T06:26:00.957Z,19.23
2018-12-26T06:27:00.992Z,19.24
2018-12-26T06:28:01.047Z,19.17
2018-12-26T06:29:01.154Z,19.24
2018-12-26T06:30:01.145Z,19.15
2018-12-26T06:31:01.180Z,19.20
2018-12-26T06:32:01.232Z,19.20
2018-12-26T06:33:01.262Z,19.21
2018-12-26T06:34:01.315Z,19.18
2018-12-26T06:35:01.353Z,19.15
2018-12-26T06:36:01.410Z,19.17
2018-12-26T06:37:01.460Z,19.25
2018-12-26T06:38:01.636Z,19.28
2018-12-26T06:39:01.537Z,19.25
2018-12-26T06:40:01.588Z,19.31
2018-12-26T06:41:01.652Z,19.25
2018-12-26T06:42:01.665Z,19.28
2018-12-26T06:43:01.727Z,19.25
2018-12-26T06:44:01.759Z,19.21
2018-12-26T06:45:01.857Z,19.32
2018-12-26T06:46:01.894Z,19.31
2018-12-26T06:47:02.049Z,19.23
2018-12-26T06:48:02.003Z,19.23
2018-12-26T06:49:01.984Z,19.23
2018-12-26T06:50:02.098Z,19.20
2018-12-26T06:51:02.128Z,19.17
2018-12-26T06:52:02.178Z,19.17
2018-12-26T06:53:02.153Z,19.17
2018-12-26T06:54:02.222Z,19.18
2018-12-26T06:55:02.266Z,19.23
2018-12-26T06:56:02.317Z,19.33
2018-12-26T06:57:02.418Z,19.28
2018-12-26T06:58:02.389Z,19.28
2018-12-26T06:59:02.457Z,19.25
2018-12-26T07:00:02.464Z,19.25
2018-12-26T07:01:02.527Z,19.20
2018-12-26T07:02:02.572Z,19.18
2018-12-26T07:03:02.624Z,19.13
2018-12-26T07:04:02.653Z,19.10
2018-12-26T07:05:02.689Z,19.05
2018-12-26T07:06:02.748Z,19.06
2018-12-26T07:07:02.797Z,18.94
2018-12-26T07:08:02.847Z,18.92
2018-12-26T07:09:02.876Z,18.97
2018-12-26T07:10:02.899Z,18.99
2018-12-26T07:11:02.995Z,19.08
2018-12-26T07:12:03.013Z,19.08
2018-12-26T07:13:03.054Z,19.10
2018-12-26T07:14:03.095Z,19.06
2018-12-26T07:15:03.131Z,19.05
2018-12-26T07:16:03.190Z,19.14
2018-12-26T07:17:03.252Z,19.20
2018-12-26T07:18:03.289Z,19.17
2018-12-26T07:19:03.324Z,19.17
2018-12-26T07:20:03.370Z,19.11
2018-12-26T07:21:03.445Z,19.10
2018-12-26T07:22:03.491Z,19.02
2018-12-26T07:23:03.492Z,18.98
2018-12-26T07:24:03.549Z,19.02
2018-12-26T07:25:03.583Z,18.97
2018-12-26T07:26:03.612Z,18.91
2018-12-26T07:27:03.661Z,18.94
2018-12-26T07:28:08.969Z,18.90
2018-12-26T07:29:03.782Z,18.92
2018-12-26T07:30:03.847Z,18.94
2018-12-26T07:31:03.869Z,18.91
2018-12-26T07:32:03.898Z,18.92
2018-12-26T07:33:03.952Z,18.91
2018-12-26T07:34:03.998Z,18.80
2018-12-26T07:35:04.035Z,18.86
2018-12-26T07:36:04.084Z,18.94
2018-12-26T07:37:04.163Z,18.83
2018-12-26T07:38:04.151Z,18.91
2018-12-26T07:39:04.225Z,18.80
2018-12-26T07:40:04.262Z,18.83
2018-12-26T07:41:04.292Z,18.87
2018-12-26T07:42:04.356Z,18.90
2018-12-26T07:43:04.403Z,18.83
2018-12-26T07:44:04.429Z,18.72
2018-12-26T07:45:04.482Z,18.74
2018-12-26T07:46:04.530Z,18.73
2018-12-26T07:47:04.577Z,18.76
2018-12-26T07:48:04.606Z,18.76
2018-12-26T07:49:04.657Z,18.82
2018-12-26T07:50:04.702Z,18.76
2018-12-26T07:51:04.746Z,18.77
2018-12-26T07:52:04.769Z,18.72
2018-12-26T07:53:05.092Z,18.72
2018-12-26T07:54:04.883Z,18.74
2018-12-26T07:55:04.959Z,18.74
2018-12-26T07:56:04.974Z,18.73
2018-12-26T07:57:04.999Z,18.70
2018-12-26T07:58:05.062Z,18.84
2018-12-26T07:59:05.191Z,18.80
2018-12-26T08:00:05.117Z,18.74
2018-12-26T08:01:05.180Z,18.79
2018-12-26T08:02:05.241Z,18.74
2018-12-26T08:03:05.283Z,18.74
2018-12-26T08:04:05.312Z,18.73
2018-12-26T08:05:05.420Z,18.68
2018-12-26T08:06:05.411Z,18.76
2018-12-26T08:07:05.467Z,18.80
2018-12-26T08:08:05.477Z,18.70
2018-12-26T08:09:05.521Z,18.77
2018-12-26T08:10:05.598Z,18.68
2018-12-26T08:11:05.613Z,18.74
2018-12-26T08:12:05.678Z,18.68
2018-12-26T08:13:05.724Z,18.72
2018-12-26T08:14:05.755Z,18.79
2018-12-26T08:15:10.431Z,18.68
2018-12-26T08:16:05.851Z,18.67
2018-12-26T08:17:05.896Z,18.65
2018-12-26T08:18:05.933Z,18.70
2018-12-26T08:19:05.968Z,18.74
2018-12-26T08:20:06.014Z,18.73
2018-12-26T08:21:06.069Z,18.65
2018-12-26T08:22:06.104Z,18.68
2018-12-26T08:23:06.149Z,18.74
2018-12-26T08:24:06.263Z,18.72
2018-12-26T08:25:06.241Z,18.74
2018-12-26T08:26:06.296Z,18.76
2018-12-26T08:27:06.344Z,18.76
2018-12-26T08:28:06.427Z,18.80
2018-12-26T08:29:06.428Z,18.82
2018-12-26T08:30:06.466Z,18.77
2018-12-26T08:31:06.509Z,18.73
2018-12-26T08:32:06.564Z,18.74
2018-12-26T08:33:06.613Z,18.72
2018-12-26T08:34:06.637Z,18.74
2018-12-26T08:35:06.696Z,18.82
2018-12-26T08:36:06.748Z,18.82
2018-12-26T08:37:06.782Z,18.86
2018-12-26T08:38:06.949Z,18.90
2018-12-26T08:39:06.868Z,18.84
2018-12-26T08:40:06.923Z,18.82
2018-12-26T08:41:07.007Z,18.84
2018-12-26T08:42:07.027Z,18.80
2018-12-26T08:43:07.032Z,18.82
2018-12-26T08:44:07.098Z,18.84
2018-12-26T08:45:07.132Z,18.92
2018-12-26T08:46:07.221Z,18.92
2018-12-26T08:47:07.211Z,18.92
2018-12-26T08:48:07.263Z,18.92
2018-12-26T08:49:07.314Z,18.91
2018-12-26T08:50:07.458Z,19.10
2018-12-26T08:51:07.411Z,18.99
2018-12-26T08:52:07.453Z,19.14
2018-12-26T08:53:07.495Z,19.15
2018-12-26T08:54:07.532Z,19.14
2018-12-26T08:55:07.585Z,19.25
2018-12-26T08:56:07.646Z,19.23
2018-12-26T08:57:07.662Z,19.25
2018-12-26T08:58:07.708Z,19.31
2018-12-26T08:59:07.808Z,19.31
2018-12-26T09:00:07.807Z,19.32
2018-12-26T09:01:07.865Z,19.39
2018-12-26T09:02:07.911Z,19.40
2018-12-26T09:03:07.938Z,19.47
2018-12-26T09:04:07.981Z,19.47
2018-12-26T09:05:08.040Z,19.54
2018-12-26T09:06:08.105Z,19.70
2018-12-26T09:07:08.123Z,19.69
2018-12-26T09:08:08.152Z,19.72
2018-12-26T09:09:08.192Z,19.86
2018-12-26T09:10:08.507Z,19.86
2018-12-26T09:11:08.299Z,19.83
2018-12-26T09:12:08.352Z,19.95
2018-12-26T09:13:08.411Z,19.95
2018-12-26T09:14:08.444Z,19.97
2018-12-26T09:15:08.476Z,20.03
2018-12-26T09:16:08.528Z,20.06
2018-12-26T09:17:08.585Z,20.10
2018-12-26T09:18:08.616Z,20.28
2018-12-26T09:19:08.655Z,20.27
2018-12-26T09:20:08.734Z,20.28
2018-12-26T09:21:08.754Z,20.33
2018-12-26T09:22:08.799Z,20.39
2018-12-26T09:23:09.568Z,20.46
2018-12-26T09:24:08.892Z,20.50
2018-12-26T09:25:08.944Z,20.68
2018-12-26T09:26:08.987Z,20.59
2018-12-26T09:27:09.029Z,20.59
2018-12-26T09:28:09.045Z,20.53
2018-12-26T09:29:09.133Z,20.46
2018-12-26T09:30:09.151Z,20.38
2018-12-26T09:31:09.191Z,20.33
2018-12-26T09:32:09.242Z,20.56
2018-12-26T09:33:09.306Z,20.66
2018-12-26T09:34:09.345Z,20.79
2018-12-26T09:35:09.409Z,20.80
2018-12-26T09:36:09.687Z,20.91
2018-12-26T09:37:09.483Z,20.80
2018-12-26T09:38:09.532Z,20.93
2018-12-26T09:39:09.560Z,20.98
2018-12-26T09:40:09.608Z,21.02
2018-12-26T09:41:09.681Z,20.99
2018-12-26T09:42:09.703Z,21.06
2018-12-26T09:43:09.769Z,21.16
2018-12-26T09:44:09.817Z,21.09
2018-12-26T09:45:09.846Z,21.24
2018-12-26T09:46:09.891Z,21.27
2018-12-26T09:47:09.944Z,21.41
2018-12-26T09:48:09.986Z,21.38
2018-12-26T09:49:10.024Z,21.42
2018-12-26T09:50:10.073Z,21.41
2018-12-26T09:51:10.132Z,21.45
2018-12-26T09:52:10.168Z,21.51
2018-12-26T09:53:10.226Z,21.50
2018-12-26T09:54:10.256Z,21.51
2018-12-26T09:55:10.293Z,21.57
2018-12-26T09:56:10.357Z,21.56
2018-12-26T09:57:10.417Z,21.69
2018-12-26T09:58:10.455Z,21.75
2018-12-26T09:59:10.533Z,21.71
2018-12-26T10:00:10.584Z,21.71
2018-12-26T10:01:10.577Z,21.78
2018-12-26T10:02:10.642Z,21.83
2018-12-26T10:03:10.771Z,21.78
2018-12-26T10:04:10.723Z,21.74
2018-12-26T10:05:10.791Z,21.71
2018-12-26T10:06:10.823Z,21.67
2018-12-26T10:07:10.877Z,21.61
2018-12-26T10:08:10.909Z,21.67
2018-12-26T10:09:10.990Z,21.78
2018-12-26T10:10:11.018Z,21.78
2018-12-26T10:11:11.066Z,21.83
2018-12-26T10:12:11.107Z,21.85
2018-12-26T10:13:11.141Z,21.92
2018-12-26T10:14:11.213Z,22.07
2018-12-26T10:15:11.240Z,22.25
2018-12-26T10:16:11.301Z,22.38
2018-12-26T10:17:11.335Z,22.46
2018-12-26T10:18:11.411Z,22.54
2018-12-26T10:19:11.459Z,22.59
2018-12-26T10:20:11.500Z,22.80
2018-12-26T10:21:11.536Z,23.01
2018-12-26T10:22:11.595Z,23.49
2018-12-26T10:23:11.660Z,24.13
2018-12-26T10:24:11.671Z,24.60
2018-12-26T10:25:11.777Z,25.27
2018-12-26T10:26:11.786Z,26.06
2018-12-26T10:27:11.843Z,26.62
2018-12-26T10:28:11.886Z,26.64
2018-12-26T10:29:11.944Z,26.47
2018-12-26T10:30:12.014Z,26.22
2018-12-26T10:31:12.026Z,26.02
2018-12-26T10:32:12.060Z,25.87
2018-12-26T10:33:12.128Z,25.69
2018-12-26T10:34:12.167Z,25.50
2018-12-26T10:35:12.234Z,25.34
2018-12-26T10:36:12.305Z,25.35
2018-12-26T10:37:12.358Z,25.42
2018-12-26T10:38:12.368Z,25.50
2018-12-26T10:39:12.474Z,25.39
2018-12-26T10:40:12.464Z,25.42
2018-12-26T10:41:12.559Z,25.53
2018-12-26T10:42:12.589Z,25.62
2018-12-26T10:43:12.646Z,25.67
2018-12-26T10:44:12.664Z,25.97
2018-12-26T10:45:12.753Z,26.17
2018-12-26T10:46:12.780Z,26.36
2018-12-26T10:47:12.832Z,26.32
2018-12-26T10:48:12.876Z,26.24
2018-12-26T10:49:12.940Z,26.22
2018-12-26T10:50:12.994Z,26.35
2018-12-26T10:51:13.027Z,26.57
2018-12-26T10:52:13.086Z,26.49
2018-12-26T10:53:13.153Z,26.42
2018-12-26T10:54:13.206Z,26.44
2018-12-26T10:55:13.229Z,27.09
2018-12-26T10:56:13.295Z,27.50
2018-12-26T10:57:13.329Z,27.79
2018-12-26T10:58:13.393Z,28.07
2018-12-26T10:59:13.459Z,28.25
2018-12-26T11:00:13.493Z,28.28
2018-12-26T11:01:13.547Z,28.21
2018-12-26T11:02:13.645Z,28.32
2018-12-26T11:03:13.657Z,28.38
2018-12-26T11:04:13.703Z,28.81
2018-12-26T11:05:13.778Z,28.75
2018-12-26T11:06:13.804Z,28.36
2018-12-26T11:07:13.875Z,28.21
2018-12-26T11:08:13.924Z,27.88
2018-12-26T11:09:13.957Z,27.59
2018-12-26T11:10:14.021Z,27.50
2018-12-26T11:11:14.077Z,27.69
2018-12-26T11:12:14.104Z,27.85
2018-12-26T11:13:14.167Z,27.96
2018-12-26T11:14:14.227Z,28.23
2018-12-26T11:15:14.281Z,28.48
2018-12-26T11:16:14.348Z,28.73
2018-12-26T11:17:14.459Z,29.29
2018-12-26T11:18:14.431Z,30.91
2018-12-26T11:19:14.514Z,31.73
2018-12-26T11:20:14.558Z,31.93
2018-12-26T11:21:14.654Z,31.53
2018-12-26T11:22:14.655Z,32.05
2018-12-26T11:23:14.722Z,32.80
2018-12-26T11:24:14.773Z,33.04
2018-12-26T11:25:14.802Z,33.10
2018-12-26T11:26:14.885Z,33.14
2018-12-26T11:27:14.916Z,32.93
2018-12-26T11:28:14.981Z,33.04
2018-12-26T11:29:18.763Z,33.27
2018-12-26T11:30:15.078Z,33.31
2018-12-26T11:31:15.160Z,33.76
2018-12-26T11:32:15.251Z,34.66
2018-12-26T11:33:15.257Z,35.76
2018-12-26T11:34:15.414Z,36.43
2018-12-26T11:35:15.390Z,36.08
2018-12-26T11:36:15.446Z,35.23
2018-12-26T11:37:15.482Z,34.51
2018-12-26T11:38:15.535Z,34.23
2018-12-26T11:39:15.651Z,34.16
2018-12-26T11:40:15.706Z,34.14
2018-12-26T11:41:15.770Z,34.46
2018-12-26T11:42:15.794Z,35.14
2018-12-26T11:43:15.850Z,35.72
2018-12-26T11:44:15.939Z,36.03
2018-12-26T11:45:15.950Z,36.45
2018-12-26T11:46:16.008Z,36.30
2018-12-26T11:47:16.056Z,36.72
2018-12-26T11:48:16.110Z,37.14
2018-12-26T11:49:16.183Z,36.86
2018-12-26T11:50:16.241Z,35.76
2018-12-26T11:51:16.339Z,35.07
2018-12-26T11:52:16.359Z,34.50
2018-12-26T11:53:16.693Z,33.31
2018-12-26T11:54:16.455Z,32.51
2018-12-26T11:55:16.542Z,32.32
2018-12-26T11:56:16.596Z,32.54
2018-12-26T11:57:16.641Z,32.40
2018-12-26T11:58:16.747Z,32.51
2018-12-26T11:59:16.764Z,33.52
2018-12-26T12:00:16.804Z,34.98
2018-12-26T12:01:16.935Z,35.92
2018-12-26T12:02:20.705Z,36.12
2018-12-26T12:03:16.987Z,35.66
2018-12-26T12:04:17.043Z,36.27
2018-12-26T12:05:17.136Z,36.80
2018-12-26T12:06:17.168Z,36.98
2018-12-26T12:07:17.240Z,36.36
2018-12-26T12:08:17.291Z,35.13
2018-12-26T12:09:17.348Z,34.54
2018-12-26T12:10:17.423Z,34.63
2018-12-26T12:11:17.475Z,34.63
2018-12-26T12:12:17.520Z,35.26
2018-12-26T12:13:17.568Z,35.97
2018-12-26T12:14:17.651Z,36.54
2018-12-26T12:15:17.706Z,37.38
2018-12-26T12:16:17.775Z,37.83
2018-12-26T12:17:17.831Z,37.80
2018-12-26T12:18:17.890Z,37.33
2018-12-26T12:19:17.938Z,36.45
2018-12-26T12:20:18.016Z,35.58
2018-12-26T12:21:18.075Z,35.48
2018-12-26T12:22:18.155Z,35.23
2018-12-26T12:23:18.197Z,35.10
2018-12-26T12:24:18.259Z,35.54
2018-12-26T12:25:18.414Z,35.48
2018-12-26T12:26:18.371Z,35.23
2018-12-26T12:27:18.444Z,35.11
2018-12-26T12:28:18.488Z,34.61
2018-12-26T12:29:18.555Z,34.07
2018-12-26T12:30:18.610Z,34.63
2018-12-26T12:31:18.682Z,35.17
2018-12-26T12:32:18.738Z,35.57
2018-12-26T12:33:18.784Z,36.65
2018-12-26T12:34:18.842Z,37.42
2018-12-26T12:35:18.913Z,37.56
2018-12-26T12:36:18.957Z,37.59
2018-12-26T12:37:19.032Z,37.32
2018-12-26T12:38:19.082Z,36.65
2018-12-26T12:39:19.157Z,36.00
2018-12-26T12:40:19.268Z,35.45
2018-12-26T12:41:19.269Z,35.79
2018-12-26T12:42:19.344Z,36.42
2018-12-26T12:43:19.399Z,36.11
2018-12-26T12:44:21.545Z,36.42
2018-12-26T12:45:19.511Z,36.85
2018-12-26T12:46:19.582Z,37.39
2018-12-26T12:47:19.641Z,37.78
2018-12-26T12:48:19.695Z,38.48
2018-12-26T12:49:19.779Z,37.90
2018-12-26T12:50:19.818Z,37.78
2018-12-26T12:51:19.890Z,37.32
2018-12-26T12:52:19.962Z,36.73
2018-12-26T12:53:19.994Z,36.79